Juergen K — PBKV — position and weather

sailwx.info

Track history (hours):
 
Tides and Currents Weather Stations Pressure Air Temp Water Temp Dewpoint Dewpoint Depression Visibility Wind Speed Wind Dir Waves Ship Positions

Juergen K

Last reported at 2015-Aug-30 16:22 UTC. Time now 2015-Sep-03 10:53 UTC.
Position N 39°35' W 009°49'.

Length 89 m; draft 5.6 m.

Type: Cargo ship. MMSI: 244329000.

Date/timePositionNaut miles runAvg speedWind from/ knotsBaromVisibWave heightAir tempDewpointWater temp
2015-Aug-30 16:22N 39°35' W 009°49'1110.3
2015-Aug-30 15:16N 39°24' W 009°50'810.0
2015-Aug-30 14:27N 39°16' W 009°50'910.0
2015-Aug-30 13:33N 39°07' W 009°51'10 9.9
2015-Aug-30 12:33N 38°57' W 009°51'1010.1
2015-Aug-30 11:33N 38°47' W 009°51'10 9.5
2015-Aug-30 10:33N 38°37' W 009°49'9 9.0
2015-Aug-30 09:33N 38°28' W 009°47'9 9.2
2015-Aug-30 08:33N 38°19' W 009°44'10 9.7
2015-Aug-30 07:33N 38°10' W 009°41'2010.1
2015-Aug-30 05:32N 37°50' W 009°35'1110.4
2015-Aug-30 04:32N 37°40' W 009°32'84 8.4
2015-Aug-29 18:33N 36°35' W 008°26'10 9.5
2015-Aug-29 17:33N 36°32' W 008°15'13 9.5
2015-Aug-29 16:09N 36°28' W 007°59'373 8.3
2015-Aug-27 19:14N 37°19' W 000°17'1010.0
2015-Aug-27 18:12N 37°25' W 000°06'123 9.7
2015-Aug-27 05:29N 38°26' E 002°09'9 9.6
2015-Aug-27 04:33N 38°31' E 002°19'10 9.6
2015-Aug-27 03:28N 38°36' E 002°30'9 9.4
2015-Aug-27 02:33N 38°40' E 002°40'11 9.4
2015-Aug-27 01:26N 38°46' E 002°52'8 9.2
2015-Aug-27 00:33N 38°50' E 003°01'9 8.9
2015-Aug-26 23:33N 38°54' E 003°10'9 8.8
2015-Aug-26 22:33N 38°59' E 003°20'9 9.0
2015-Aug-26 21:33N 39°03' E 003°30'9 9.1
2015-Aug-26 20:33N 39°08' E 003°40'162 9.3
2015-Aug-26 03:11N 40°29' E 006°42'  
2015-Aug-21 20:24N 40°35' E 013°45'910.6
2015-Aug-21 19:33N 40°33' E 013°56'1110.6
2015-Aug-21 18:33N 40°30' E 014°10'1210.6
2015-Aug-21 17:28N 40°31' E 014°25'  
Track history (hours):
 
Tides and Currents Weather Stations Pressure Air Temp Water Temp Dewpoint Dewpoint Depression Visibility Wind Speed Wind Dir Waves Ship Positions

Juergen K

Last reported at 2015-Aug-30 16:22 UTC. Time now 2015-Sep-03 10:53 UTC.
Position N 39°35' W 009°49'.

Length 89 m; draft 5.6 m.

Type: Cargo ship. MMSI: 244329000.

Date/timePositionNaut miles runAvg speedWind from/ knotsBaromVisibWave heightAir tempDewpointWater temp
2015-Aug-30 16:22N 39°35' W 009°49'1110.3
2015-Aug-30 15:16N 39°24' W 009°50'810.0
2015-Aug-30 14:27N 39°16' W 009°50'910.0
2015-Aug-30 13:33N 39°07' W 009°51'10 9.9
2015-Aug-30 12:33N 38°57' W 009°51'1010.1
2015-Aug-30 11:33N 38°47' W 009°51'10 9.5
2015-Aug-30 10:33N 38°37' W 009°49'9 9.0
2015-Aug-30 09:33N 38°28' W 009°47'9 9.2
2015-Aug-30 08:33N 38°19' W 009°44'10 9.7
2015-Aug-30 07:33N 38°10' W 009°41'2010.1
2015-Aug-30 05:32N 37°50' W 009°35'1110.4
2015-Aug-30 04:32N 37°40' W 009°32'84 8.4
2015-Aug-29 18:33N 36°35' W 008°26'10 9.5
2015-Aug-29 17:33N 36°32' W 008°15'13 9.5
2015-Aug-29 16:09N 36°28' W 007°59'373 8.3
2015-Aug-27 19:14N 37°19' W 000°17'1010.0
2015-Aug-27 18:12N 37°25' W 000°06'123 9.7
2015-Aug-27 05:29N 38°26' E 002°09'9 9.6
2015-Aug-27 04:33N 38°31' E 002°19'10 9.6
2015-Aug-27 03:28N 38°36' E 002°30'9 9.4
2015-Aug-27 02:33N 38°40' E 002°40'11 9.4
2015-Aug-27 01:26N 38°46' E 002°52'8 9.2
2015-Aug-27 00:33N 38°50' E 003°01'9 8.9
2015-Aug-26 23:33N 38°54' E 003°10'9 8.8
2015-Aug-26 22:33N 38°59' E 003°20'9 9.0
2015-Aug-26 21:33N 39°03' E 003°30'9 9.1
2015-Aug-26 20:33N 39°08' E 003°40'162 9.3
2015-Aug-26 03:11N 40°29' E 006°42'  
2015-Aug-21 20:24N 40°35' E 013°45'910.6
2015-Aug-21 19:33N 40°33' E 013°56'1110.6
2015-Aug-21 18:33N 40°30' E 014°10'1210.6
2015-Aug-21 17:28N 40°31' E 014°25'  

Dump ship's entire track history